sensor_id;sensor_type;location;lat;lon;timestamp;P1;durP1;ratioP1;P2;durP2;ratioP2
62102;SDS011;48077;48.104;11.702;2023-06-04T00:07:40;9.07;;;8.18;;
62102;SDS011;48077;48.104;11.702;2023-06-04T00:10:04;7.75;;;6.40;;
62102;SDS011;48077;48.104;11.702;2023-06-04T00:12:28;8.70;;;7.50;;
62102;SDS011;48077;48.104;11.702;2023-06-04T00:14:51;7.50;;;5.55;;
62102;SDS011;48077;48.104;11.702;2023-06-04T00:17:14;10.02;;;7.60;;
62102;SDS011;48077;48.104;11.702;2023-06-04T00:19:38;9.30;;;6.47;;
62102;SDS011;48077;48.104;11.702;2023-06-04T00:22:03;9.88;;;6.68;;
62102;SDS011;48077;48.104;11.702;2023-06-04T00:24:26;6.95;;;5.97;;
62102;SDS011;48077;48.104;11.702;2023-06-04T00:26:50;11.18;;;5.97;;
62102;SDS011;48077;48.104;11.702;2023-06-04T00:29:13;8.20;;;6.05;;
62102;SDS011;48077;48.104;11.702;2023-06-04T00:31:36;8.15;;;6.05;;
62102;SDS011;48077;48.104;11.702;2023-06-04T00:34:00;8.32;;;6.13;;
62102;SDS011;48077;48.104;11.702;2023-06-04T00:36:23;8.85;;;7.40;;
62102;SDS011;48077;48.104;11.702;2023-06-04T00:38:47;7.32;;;6.03;;
62102;SDS011;48077;48.104;11.702;2023-06-04T00:41:10;9.23;;;6.57;;
62102;SDS011;48077;48.104;11.702;2023-06-04T00:43:33;10.43;;;6.60;;
62102;SDS011;48077;48.104;11.702;2023-06-04T00:45:59;7.05;;;5.90;;
62102;SDS011;48077;48.104;11.702;2023-06-04T00:48:23;6.88;;;5.90;;
62102;SDS011;48077;48.104;11.702;2023-06-04T00:50:50;10.07;;;7.25;;
62102;SDS011;48077;48.104;11.702;2023-06-04T00:53:14;8.95;;;6.45;;
62102;SDS011;48077;48.104;11.702;2023-06-04T00:55:37;9.20;;;6.05;;
62102;SDS011;48077;48.104;11.702;2023-06-04T00:58:01;11.25;;;6.45;;
62102;SDS011;48077;48.104;11.702;2023-06-04T01:00:24;7.00;;;5.97;;
62102;SDS011;48077;48.104;11.702;2023-06-04T01:02:49;10.88;;;8.55;;
62102;SDS011;48077;48.104;11.702;2023-06-04T01:07:42;13.05;;;8.98;;
62102;SDS011;48077;48.104;11.702;2023-06-04T01:10:09;10.68;;;6.53;;
62102;SDS011;48077;48.104;11.702;2023-06-04T01:12:33;8.35;;;6.43;;
62102;SDS011;48077;48.104;11.702;2023-06-04T01:14:56;6.93;;;6.22;;
62102;SDS011;48077;48.104;11.702;2023-06-04T01:20:15;9.10;;;7.13;;
62102;SDS011;48077;48.104;11.702;2023-06-04T01:23:25;9.35;;;7.45;;
62102;SDS011;48077;48.104;11.702;2023-06-04T01:26:08;15.30;;;9.68;;
62102;SDS011;48077;48.104;11.702;2023-06-04T01:28:33;10.52;;;8.13;;
62102;SDS011;48077;48.104;11.702;2023-06-04T01:30:57;11.10;;;9.27;;
62102;SDS011;48077;48.104;11.702;2023-06-04T01:33:22;8.98;;;7.63;;
62102;SDS011;48077;48.104;11.702;2023-06-04T01:35:46;10.10;;;7.13;;
62102;SDS011;48077;48.104;11.702;2023-06-04T01:38:09;7.68;;;6.88;;
62102;SDS011;48077;48.104;11.702;2023-06-04T01:40:33;9.52;;;8.30;;
62102;SDS011;48077;48.104;11.702;2023-06-04T01:42:58;11.15;;;8.70;;
62102;SDS011;48077;48.104;11.702;2023-06-04T01:45:22;9.38;;;7.70;;
62102;SDS011;48077;48.104;11.702;2023-06-04T01:47:45;10.38;;;9.13;;
62102;SDS011;48077;48.104;11.702;2023-06-04T01:50:09;9.32;;;8.35;;
62102;SDS011;48077;48.104;11.702;2023-06-04T01:52:32;10.50;;;7.95;;
62102;SDS011;48077;48.104;11.702;2023-06-04T01:54:56;9.48;;;8.25;;
62102;SDS011;48077;48.104;11.702;2023-06-04T01:57:20;10.90;;;8.65;;
62102;SDS011;48077;48.104;11.702;2023-06-04T01:59:44;9.40;;;8.20;;
62102;SDS011;48077;48.104;11.702;2023-06-04T02:02:08;11.93;;;10.27;;
62102;SDS011;48077;48.104;11.702;2023-06-04T02:04:31;10.15;;;8.95;;
62102;SDS011;48077;48.104;11.702;2023-06-04T02:06:54;10.98;;;8.52;;
62102;SDS011;48077;48.104;11.702;2023-06-04T02:09:19;9.05;;;8.15;;
62102;SDS011;48077;48.104;11.702;2023-06-04T02:11:43;9.65;;;8.73;;
62102;SDS011;48077;48.104;11.702;2023-06-04T02:14:07;11.85;;;10.57;;
62102;SDS011;48077;48.104;11.702;2023-06-04T02:16:30;10.63;;;9.57;;
62102;SDS011;48077;48.104;11.702;2023-06-04T02:18:55;10.60;;;9.38;;
62102;SDS011;48077;48.104;11.702;2023-06-04T02:21:18;9.88;;;8.90;;
62102;SDS011;48077;48.104;11.702;2023-06-04T02:23:42;12.48;;;11.30;;
62102;SDS011;48077;48.104;11.702;2023-06-04T02:26:05;11.05;;;9.45;;
62102;SDS011;48077;48.104;11.702;2023-06-04T02:28:29;13.63;;;12.25;;
62102;SDS011;48077;48.104;11.702;2023-06-04T02:30:52;11.73;;;10.52;;
62102;SDS011;48077;48.104;11.702;2023-06-04T02:33:16;11.80;;;10.60;;
62102;SDS011;48077;48.104;11.702;2023-06-04T02:35:39;11.73;;;10.57;;
62102;SDS011;48077;48.104;11.702;2023-06-04T02:38:04;10.75;;;9.65;;
62102;SDS011;48077;48.104;11.702;2023-06-04T02:40:29;12.68;;;11.38;;
62102;SDS011;48077;48.104;11.702;2023-06-04T02:42:53;12.63;;;11.38;;
62102;SDS011;48077;48.104;11.702;2023-06-04T02:45:17;10.90;;;9.90;;
62102;SDS011;48077;48.104;11.702;2023-06-04T02:47:40;12.65;;;11.43;;
62102;SDS011;48077;48.104;11.702;2023-06-04T02:50:04;14.30;;;12.98;;
62102;SDS011;48077;48.104;11.702;2023-06-04T02:52:28;13.20;;;11.48;;
62102;SDS011;48077;48.104;11.702;2023-06-04T02:54:51;15.43;;;14.05;;
62102;SDS011;48077;48.104;11.702;2023-06-04T02:57:15;14.15;;;12.73;;
62102;SDS011;48077;48.104;11.702;2023-06-04T02:59:38;13.35;;;12.10;;
62102;SDS011;48077;48.104;11.702;2023-06-04T03:02:02;14.63;;;13.27;;
62102;SDS011;48077;48.104;11.702;2023-06-04T03:04:26;15.48;;;14.02;;
62102;SDS011;48077;48.104;11.702;2023-06-04T03:06:57;16.73;;;14.98;;
62102;SDS011;48077;48.104;11.702;2023-06-04T03:09:20;15.98;;;14.60;;
62102;SDS011;48077;48.104;11.702;2023-06-04T03:11:44;14.68;;;13.23;;
62102;SDS011;48077;48.104;11.702;2023-06-04T03:14:07;14.57;;;13.27;;
62102;SDS011;48077;48.104;11.702;2023-06-04T03:16:30;16.58;;;14.95;;
62102;SDS011;48077;48.104;11.702;2023-06-04T03:18:54;16.85;;;15.23;;
62102;SDS011;48077;48.104;11.702;2023-06-04T03:21:17;16.88;;;15.32;;
62102;SDS011;48077;48.104;11.702;2023-06-04T03:23:40;16.30;;;14.85;;
62102;SDS011;48077;48.104;11.702;2023-06-04T03:26:04;18.13;;;16.33;;
62102;SDS011;48077;48.104;11.702;2023-06-04T03:28:28;17.33;;;15.75;;
62102;SDS011;48077;48.104;11.702;2023-06-04T03:30:51;18.33;;;16.75;;
62102;SDS011;48077;48.104;11.702;2023-06-04T03:33:15;18.60;;;17.05;;
62102;SDS011;48077;48.104;11.702;2023-06-04T03:35:40;19.67;;;17.73;;
62102;SDS011;48077;48.104;11.702;2023-06-04T03:38:04;18.92;;;16.88;;
62102;SDS011;48077;48.104;11.702;2023-06-04T03:40:27;18.17;;;16.50;;
62102;SDS011;48077;48.104;11.702;2023-06-04T03:42:50;18.13;;;16.55;;
62102;SDS011;48077;48.104;11.702;2023-06-04T03:45:14;19.58;;;17.80;;
62102;SDS011;48077;48.104;11.702;2023-06-04T03:47:38;20.23;;;18.38;;
62102;SDS011;48077;48.104;11.702;2023-06-04T03:50:02;21.77;;;19.90;;
62102;SDS011;48077;48.104;11.702;2023-06-04T03:52:25;18.95;;;17.40;;
62102;SDS011;48077;48.104;11.702;2023-06-04T03:54:49;17.83;;;16.35;;
62102;SDS011;48077;48.104;11.702;2023-06-04T03:57:13;21.27;;;19.40;;
62102;SDS011;48077;48.104;11.702;2023-06-04T03:59:36;19.67;;;17.98;;
62102;SDS011;48077;48.104;11.702;2023-06-04T04:01:59;22.02;;;19.98;;
62102;SDS011;48077;48.104;11.702;2023-06-04T04:04:23;21.27;;;19.60;;
62102;SDS011;48077;48.104;11.702;2023-06-04T04:06:46;22.35;;;20.40;;
62102;SDS011;48077;48.104;11.702;2023-06-04T04:09:09;20.00;;;18.30;;
62102;SDS011;48077;48.104;11.702;2023-06-04T04:11:33;23.35;;;21.30;;
62102;SDS011;48077;48.104;11.702;2023-06-04T04:13:56;21.08;;;19.23;;
62102;SDS011;48077;48.104;11.702;2023-06-04T04:16:20;19.10;;;17.50;;
62102;SDS011;48077;48.104;11.702;2023-06-04T04:18:43;17.50;;;15.95;;
62102;SDS011;48077;48.104;11.702;2023-06-04T04:21:07;19.75;;;17.98;;
62102;SDS011;48077;48.104;11.702;2023-06-04T04:23:31;20.10;;;18.25;;
62102;SDS011;48077;48.104;11.702;2023-06-04T04:25:54;17.77;;;15.77;;
62102;SDS011;48077;48.104;11.702;2023-06-04T04:28:19;19.50;;;17.60;;
62102;SDS011;48077;48.104;11.702;2023-06-04T04:30:42;16.40;;;15.10;;
62102;SDS011;48077;48.104;11.702;2023-06-04T04:33:07;16.55;;;15.23;;
62102;SDS011;48077;48.104;11.702;2023-06-04T04:35:31;17.65;;;16.05;;
62102;SDS011;48077;48.104;11.702;2023-06-04T04:37:55;15.68;;;14.38;;
62102;SDS011;48077;48.104;11.702;2023-06-04T04:40:20;15.02;;;13.68;;
62102;SDS011;48077;48.104;11.702;2023-06-04T04:42:43;14.35;;;13.23;;
62102;SDS011;48077;48.104;11.702;2023-06-04T04:45:07;14.27;;;12.98;;
62102;SDS011;48077;48.104;11.702;2023-06-04T04:47:31;14.48;;;12.77;;
62102;SDS011;48077;48.104;11.702;2023-06-04T04:49:54;13.50;;;12.23;;
62102;SDS011;48077;48.104;11.702;2023-06-04T04:52:18;13.32;;;12.25;;
62102;SDS011;48077;48.104;11.702;2023-06-04T04:54:41;11.60;;;10.40;;
62102;SDS011;48077;48.104;11.702;2023-06-04T04:57:04;12.88;;;11.68;;
62102;SDS011;48077;48.104;11.702;2023-06-04T04:59:30;12.90;;;11.68;;
62102;SDS011;48077;48.104;11.702;2023-06-04T05:01:53;12.18;;;10.75;;
62102;SDS011;48077;48.104;11.702;2023-06-04T05:04:17;12.00;;;10.88;;
62102;SDS011;48077;48.104;11.702;2023-06-04T05:06:40;10.32;;;9.05;;
62102;SDS011;48077;48.104;11.702;2023-06-04T05:09:03;9.77;;;8.90;;
62102;SDS011;48077;48.104;11.702;2023-06-04T05:11:27;9.65;;;8.75;;
62102;SDS011;48077;48.104;11.702;2023-06-04T05:13:50;8.02;;;7.28;;
62102;SDS011;48077;48.104;11.702;2023-06-04T05:16:13;9.70;;;8.73;;
62102;SDS011;48077;48.104;11.702;2023-06-04T05:18:37;8.30;;;6.72;;
62102;SDS011;48077;48.104;11.702;2023-06-04T05:21:03;9.75;;;7.40;;
62102;SDS011;48077;48.104;11.702;2023-06-04T05:23:26;8.23;;;5.78;;
62102;SDS011;48077;48.104;11.702;2023-06-04T05:25:50;9.82;;;6.40;;
62102;SDS011;48077;48.104;11.702;2023-06-04T05:28:15;10.18;;;6.35;;
62102;SDS011;48077;48.104;11.702;2023-06-04T05:30:39;14.25;;;7.30;;
62102;SDS011;48077;48.104;11.702;2023-06-04T05:33:04;8.25;;;5.43;;
62102;SDS011;48077;48.104;11.702;2023-06-04T05:35:28;7.07;;;5.22;;
62102;SDS011;48077;48.104;11.702;2023-06-04T05:37:52;6.68;;;5.50;;
62102;SDS011;48077;48.104;11.702;2023-06-04T05:40:17;12.07;;;7.47;;
62102;SDS011;48077;48.104;11.702;2023-06-04T05:42:41;9.25;;;5.38;;
62102;SDS011;48077;48.104;11.702;2023-06-04T05:45:05;6.65;;;5.22;;
62102;SDS011;48077;48.104;11.702;2023-06-04T05:47:31;9.52;;;6.75;;
62102;SDS011;48077;48.104;11.702;2023-06-04T05:49:54;9.10;;;6.10;;
62102;SDS011;48077;48.104;11.702;2023-06-04T05:52:17;8.52;;;5.72;;
62102;SDS011;48077;48.104;11.702;2023-06-04T05:54:41;8.75;;;4.93;;
62102;SDS011;48077;48.104;11.702;2023-06-04T05:57:04;5.85;;;4.47;;
62102;SDS011;48077;48.104;11.702;2023-06-04T05:59:29;6.93;;;5.72;;
62102;SDS011;48077;48.104;11.702;2023-06-04T06:01:52;5.55;;;3.80;;
62102;SDS011;48077;48.104;11.702;2023-06-04T06:04:16;7.57;;;4.25;;
62102;SDS011;48077;48.104;11.702;2023-06-04T06:06:39;4.85;;;3.72;;
62102;SDS011;48077;48.104;11.702;2023-06-04T06:09:03;6.80;;;5.30;;
62102;SDS011;48077;48.104;11.702;2023-06-04T06:11:28;4.10;;;3.25;;
62102;SDS011;48077;48.104;11.702;2023-06-04T06:13:51;5.60;;;3.65;;
62102;SDS011;48077;48.104;11.702;2023-06-04T06:16:14;5.10;;;3.97;;
62102;SDS011;48077;48.104;11.702;2023-06-04T06:18:40;9.38;;;5.35;;
62102;SDS011;48077;48.104;11.702;2023-06-04T06:21:03;7.15;;;3.67;;
62102;SDS011;48077;48.104;11.702;2023-06-04T06:23:26;7.28;;;4.90;;
62102;SDS011;48077;48.104;11.702;2023-06-04T06:25:50;5.20;;;3.38;;
62102;SDS011;48077;48.104;11.702;2023-06-04T06:28:14;6.03;;;3.97;;
62102;SDS011;48077;48.104;11.702;2023-06-04T06:30:38;5.85;;;4.35;;
62102;SDS011;48077;48.104;11.702;2023-06-04T06:33:02;8.90;;;4.03;;
62102;SDS011;48077;48.104;11.702;2023-06-04T06:35:25;5.30;;;4.00;;
62102;SDS011;48077;48.104;11.702;2023-06-04T06:37:48;7.25;;;4.15;;
62102;SDS011;48077;48.104;11.702;2023-06-04T06:40:12;7.55;;;4.07;;
62102;SDS011;48077;48.104;11.702;2023-06-04T06:42:35;6.63;;;3.75;;
62102;SDS011;48077;48.104;11.702;2023-06-04T06:45:01;8.73;;;4.38;;
62102;SDS011;48077;48.104;11.702;2023-06-04T06:47:24;5.60;;;3.83;;
62102;SDS011;48077;48.104;11.702;2023-06-04T06:49:48;5.07;;;3.20;;
62102;SDS011;48077;48.104;11.702;2023-06-04T06:52:11;9.65;;;3.80;;
62102;SDS011;48077;48.104;11.702;2023-06-04T06:54:34;7.70;;;4.40;;
62102;SDS011;48077;48.104;11.702;2023-06-04T06:56:58;10.88;;;3.90;;
62102;SDS011;48077;48.104;11.702;2023-06-04T06:59:21;8.55;;;4.50;;
62102;SDS011;48077;48.104;11.702;2023-06-04T07:01:44;8.02;;;4.57;;
62102;SDS011;48077;48.104;11.702;2023-06-04T07:04:08;10.82;;;4.30;;
62102;SDS011;48077;48.104;11.702;2023-06-04T07:06:31;7.10;;;3.85;;
62102;SDS011;48077;48.104;11.702;2023-06-04T07:08:55;6.65;;;3.75;;
62102;SDS011;48077;48.104;11.702;2023-06-04T07:11:19;6.88;;;3.70;;
62102;SDS011;48077;48.104;11.702;2023-06-04T07:13:42;5.32;;;2.88;;
62102;SDS011;48077;48.104;11.702;2023-06-04T07:16:06;6.22;;;3.47;;
62102;SDS011;48077;48.104;11.702;2023-06-04T07:18:29;7.25;;;3.25;;
62102;SDS011;48077;48.104;11.702;2023-06-04T07:20:53;4.00;;;3.13;;
62102;SDS011;48077;48.104;11.702;2023-06-04T07:23:16;7.82;;;4.15;;
62102;SDS011;48077;48.104;11.702;2023-06-04T07:25:39;7.47;;;3.70;;
62102;SDS011;48077;48.104;11.702;2023-06-04T07:28:03;6.78;;;3.67;;
62102;SDS011;48077;48.104;11.702;2023-06-04T07:30:27;7.57;;;3.65;;
62102;SDS011;48077;48.104;11.702;2023-06-04T07:32:51;5.82;;;3.33;;
62102;SDS011;48077;48.104;11.702;2023-06-04T07:35:14;3.67;;;3.05;;
62102;SDS011;48077;48.104;11.702;2023-06-04T07:37:38;6.22;;;3.88;;
62102;SDS011;48077;48.104;11.702;2023-06-04T07:40:01;6.28;;;3.53;;
62102;SDS011;48077;48.104;11.702;2023-06-04T07:42:25;5.28;;;3.60;;
62102;SDS011;48077;48.104;11.702;2023-06-04T07:44:48;5.07;;;3.45;;
62102;SDS011;48077;48.104;11.702;2023-06-04T07:47:12;7.07;;;3.95;;
62102;SDS011;48077;48.104;11.702;2023-06-04T07:49:35;4.60;;;3.00;;
62102;SDS011;48077;48.104;11.702;2023-06-04T07:51:59;5.55;;;3.85;;
62102;SDS011;48077;48.104;11.702;2023-06-04T07:54:23;4.65;;;2.88;;
62102;SDS011;48077;48.104;11.702;2023-06-04T07:56:46;5.50;;;3.25;;
62102;SDS011;48077;48.104;11.702;2023-06-04T07:59:10;7.53;;;4.05;;
62102;SDS011;48077;48.104;11.702;2023-06-04T08:01:33;5.47;;;3.45;;
62102;SDS011;48077;48.104;11.702;2023-06-04T08:03:56;7.68;;;3.22;;
62102;SDS011;48077;48.104;11.702;2023-06-04T08:06:21;6.05;;;2.78;;
62102;SDS011;48077;48.104;11.702;2023-06-04T08:08:47;5.15;;;2.85;;
62102;SDS011;48077;48.104;11.702;2023-06-04T08:11:13;5.22;;;3.33;;
62102;SDS011;48077;48.104;11.702;2023-06-04T08:13:38;6.20;;;3.17;;
62102;SDS011;48077;48.104;11.702;2023-06-04T08:16:02;7.63;;;3.10;;
62102;SDS011;48077;48.104;11.702;2023-06-04T08:18:25;4.63;;;2.88;;
62102;SDS011;48077;48.104;11.702;2023-06-04T08:20:49;5.97;;;3.13;;
62102;SDS011;48077;48.104;11.702;2023-06-04T08:23:12;10.35;;;3.42;;
62102;SDS011;48077;48.104;11.702;2023-06-04T08:25:36;6.22;;;3.60;;
62102;SDS011;48077;48.104;11.702;2023-06-04T08:27:59;4.93;;;2.92;;
62102;SDS011;48077;48.104;11.702;2023-06-04T08:30:22;5.15;;;3.05;;
62102;SDS011;48077;48.104;11.702;2023-06-04T08:32:46;5.15;;;3.50;;
62102;SDS011;48077;48.104;11.702;2023-06-04T08:35:09;6.00;;;3.08;;
62102;SDS011;48077;48.104;11.702;2023-06-04T08:37:33;5.32;;;3.28;;
62102;SDS011;48077;48.104;11.702;2023-06-04T08:39:57;5.88;;;3.15;;
62102;SDS011;48077;48.104;11.702;2023-06-04T08:42:22;7.07;;;3.20;;
62102;SDS011;48077;48.104;11.702;2023-06-04T08:44:50;6.78;;;3.15;;
62102;SDS011;48077;48.104;11.702;2023-06-04T08:47:16;4.30;;;2.90;;
62102;SDS011;48077;48.104;11.702;2023-06-04T08:49:42;7.68;;;3.47;;
62102;SDS011;48077;48.104;11.702;2023-06-04T08:52:11;8.13;;;3.58;;
62102;SDS011;48077;48.104;11.702;2023-06-04T08:54:35;10.55;;;3.60;;
62102;SDS011;48077;48.104;11.702;2023-06-04T08:56:58;6.22;;;3.22;;
62102;SDS011;48077;48.104;11.702;2023-06-04T08:59:23;8.07;;;3.70;;
62102;SDS011;48077;48.104;11.702;2023-06-04T09:01:47;7.18;;;3.30;;
62102;SDS011;48077;48.104;11.702;2023-06-04T09:04:11;7.72;;;2.90;;
62102;SDS011;48077;48.104;11.702;2023-06-04T09:06:35;6.00;;;3.42;;
62102;SDS011;48077;48.104;11.702;2023-06-04T09:09:02;5.43;;;3.00;;
62102;SDS011;48077;48.104;11.702;2023-06-04T09:11:31;6.95;;;3.38;;
62102;SDS011;48077;48.104;11.702;2023-06-04T09:13:59;4.50;;;2.72;;
62102;SDS011;48077;48.104;11.702;2023-06-04T09:16:24;5.35;;;2.90;;
62102;SDS011;48077;48.104;11.702;2023-06-04T09:18:47;7.32;;;3.58;;
62102;SDS011;48077;48.104;11.702;2023-06-04T09:21:11;6.28;;;4.03;;
62102;SDS011;48077;48.104;11.702;2023-06-04T09:23:44;4.82;;;3.10;;
62102;SDS011;48077;48.104;11.702;2023-06-04T09:26:09;4.88;;;3.10;;
62102;SDS011;48077;48.104;11.702;2023-06-04T09:28:32;6.88;;;2.90;;
62102;SDS011;48077;48.104;11.702;2023-06-04T09:30:56;7.05;;;3.63;;
62102;SDS011;48077;48.104;11.702;2023-06-04T09:33:19;8.30;;;3.38;;
62102;SDS011;48077;48.104;11.702;2023-06-04T09:35:53;8.23;;;3.67;;
62102;SDS011;48077;48.104;11.702;2023-06-04T09:38:17;5.55;;;3.40;;
62102;SDS011;48077;48.104;11.702;2023-06-04T09:40:40;6.07;;;2.97;;
62102;SDS011;48077;48.104;11.702;2023-06-04T09:43:04;6.85;;;3.13;;
62102;SDS011;48077;48.104;11.702;2023-06-04T09:45:32;5.68;;;3.30;;
62102;SDS011;48077;48.104;11.702;2023-06-04T09:47:58;7.15;;;3.00;;
62102;SDS011;48077;48.104;11.702;2023-06-04T09:50:32;6.30;;;3.78;;
62102;SDS011;48077;48.104;11.702;2023-06-04T09:52:57;6.25;;;3.50;;
62102;SDS011;48077;48.104;11.702;2023-06-04T09:55:20;5.72;;;3.50;;
62102;SDS011;48077;48.104;11.702;2023-06-04T09:57:46;4.13;;;2.95;;
62102;SDS011;48077;48.104;11.702;2023-06-04T10:00:12;7.05;;;3.30;;
62102;SDS011;48077;48.104;11.702;2023-06-04T10:02:39;4.10;;;2.95;;
62102;SDS011;48077;48.104;11.702;2023-06-04T10:05:03;6.03;;;3.28;;
62102;SDS011;48077;48.104;11.702;2023-06-04T10:07:31;5.78;;;3.40;;
62102;SDS011;48077;48.104;11.702;2023-06-04T10:09:59;7.07;;;3.28;;
62102;SDS011;48077;48.104;11.702;2023-06-04T10:12:29;5.55;;;3.30;;
62102;SDS011;48077;48.104;11.702;2023-06-04T10:14:59;6.75;;;3.70;;
62102;SDS011;48077;48.104;11.702;2023-06-04T10:17:28;6.25;;;3.58;;
62102;SDS011;48077;48.104;11.702;2023-06-04T10:19:53;7.22;;;4.45;;
62102;SDS011;48077;48.104;11.702;2023-06-04T10:22:17;5.90;;;3.42;;
62102;SDS011;48077;48.104;11.702;2023-06-04T10:24:40;4.88;;;3.03;;
62102;SDS011;48077;48.104;11.702;2023-06-04T10:27:04;6.20;;;3.50;;
62102;SDS011;48077;48.104;11.702;2023-06-04T10:29:34;6.20;;;3.42;;
62102;SDS011;48077;48.104;11.702;2023-06-04T10:31:57;3.83;;;3.03;;
62102;SDS011;48077;48.104;11.702;2023-06-04T10:34:20;7.40;;;3.40;;
62102;SDS011;48077;48.104;11.702;2023-06-04T10:36:44;6.50;;;3.85;;
62102;SDS011;48077;48.104;11.702;2023-06-04T10:39:08;7.32;;;3.90;;
62102;SDS011;48077;48.104;11.702;2023-06-04T10:41:32;7.18;;;3.80;;
62102;SDS011;48077;48.104;11.702;2023-06-04T10:44:00;6.47;;;3.28;;
62102;SDS011;48077;48.104;11.702;2023-06-04T10:46:24;7.38;;;3.72;;
62102;SDS011;48077;48.104;11.702;2023-06-04T10:48:51;5.90;;;3.58;;
62102;SDS011;48077;48.104;11.702;2023-06-04T10:51:28;10.60;;;4.25;;
62102;SDS011;48077;48.104;11.702;2023-06-04T10:53:53;6.95;;;3.42;;
62102;SDS011;48077;48.104;11.702;2023-06-04T10:58:50;10.27;;;3.80;;
62102;SDS011;48077;48.104;11.702;2023-06-04T11:01:22;7.22;;;3.67;;
62102;SDS011;48077;48.104;11.702;2023-06-04T11:03:49;6.20;;;3.30;;
62102;SDS011;48077;48.104;11.702;2023-06-04T11:06:16;4.97;;;3.53;;
62102;SDS011;48077;48.104;11.702;2023-06-04T11:08:40;8.15;;;3.47;;
62102;SDS011;48077;48.104;11.702;2023-06-04T11:11:10;6.13;;;2.95;;
62102;SDS011;48077;48.104;11.702;2023-06-04T11:13:35;5.57;;;3.40;;
62102;SDS011;48077;48.104;11.702;2023-06-04T11:15:58;4.80;;;3.28;;
62102;SDS011;48077;48.104;11.702;2023-06-04T11:18:21;7.60;;;3.63;;
62102;SDS011;48077;48.104;11.702;2023-06-04T11:20:59;7.20;;;3.40;;
62102;SDS011;48077;48.104;11.702;2023-06-04T11:23:24;8.07;;;3.35;;
62102;SDS011;48077;48.104;11.702;2023-06-04T11:25:47;9.32;;;3.80;;
62102;SDS011;48077;48.104;11.702;2023-06-04T11:28:15;8.68;;;4.10;;
62102;SDS011;48077;48.104;11.702;2023-06-04T11:30:40;6.15;;;3.38;;
62102;SDS011;48077;48.104;11.702;2023-06-04T11:33:04;6.00;;;3.15;;
62102;SDS011;48077;48.104;11.702;2023-06-04T11:35:28;7.03;;;3.70;;
62102;SDS011;48077;48.104;11.702;2023-06-04T11:37:57;6.75;;;3.70;;
62102;SDS011;48077;48.104;11.702;2023-06-04T11:42:45;6.18;;;3.25;;
62102;SDS011;48077;48.104;11.702;2023-06-04T11:45:10;7.68;;;3.65;;
62102;SDS011;48077;48.104;11.702;2023-06-04T11:47:35;6.47;;;3.50;;
62102;SDS011;48077;48.104;11.702;2023-06-04T11:49:59;8.95;;;4.07;;
62102;SDS011;48077;48.104;11.702;2023-06-04T11:52:22;7.57;;;3.67;;
62102;SDS011;48077;48.104;11.702;2023-06-04T11:54:46;16.70;;;4.35;;
62102;SDS011;48077;48.104;11.702;2023-06-04T11:57:10;10.50;;;4.20;;
62102;SDS011;48077;48.104;11.702;2023-06-04T11:59:33;7.68;;;3.47;;
62102;SDS011;48077;48.104;11.702;2023-06-04T12:01:59;7.65;;;3.95;;
62102;SDS011;48077;48.104;11.702;2023-06-04T12:04:23;8.20;;;4.07;;
62102;SDS011;48077;48.104;11.702;2023-06-04T12:09:25;9.40;;;4.47;;
62102;SDS011;48077;48.104;11.702;2023-06-04T12:11:57;8.73;;;5.20;;
62102;SDS011;48077;48.104;11.702;2023-06-04T12:14:24;7.82;;;4.20;;
62102;SDS011;48077;48.104;11.702;2023-06-04T12:16:57;7.80;;;3.95;;
62102;SDS011;48077;48.104;11.702;2023-06-04T12:19:21;5.68;;;3.60;;
62102;SDS011;48077;48.104;11.702;2023-06-04T12:21:45;6.30;;;3.90;;
62102;SDS011;48077;48.104;11.702;2023-06-04T12:24:09;5.95;;;3.60;;
62102;SDS011;48077;48.104;11.702;2023-06-04T12:26:33;7.00;;;4.10;;
62102;SDS011;48077;48.104;11.702;2023-06-04T12:29:01;6.60;;;3.92;;
62102;SDS011;48077;48.104;11.702;2023-06-04T12:31:24;5.35;;;3.47;;
62102;SDS011;48077;48.104;11.702;2023-06-04T12:33:48;6.95;;;4.05;;
62102;SDS011;48077;48.104;11.702;2023-06-04T12:36:11;6.72;;;4.25;;
62102;SDS011;48077;48.104;11.702;2023-06-04T12:38:34;6.05;;;3.83;;
62102;SDS011;48077;48.104;11.702;2023-06-04T12:40:58;6.93;;;3.97;;
62102;SDS011;48077;48.104;11.702;2023-06-04T12:43:21;9.00;;;3.65;;
62102;SDS011;48077;48.104;11.702;2023-06-04T12:45:45;8.25;;;4.10;;
62102;SDS011;48077;48.104;11.702;2023-06-04T12:48:08;6.68;;;3.97;;
62102;SDS011;48077;48.104;11.702;2023-06-04T12:50:32;7.28;;;3.88;;
62102;SDS011;48077;48.104;11.702;2023-06-04T12:52:55;9.77;;;4.35;;
62102;SDS011;48077;48.104;11.702;2023-06-04T12:55:19;8.85;;;4.10;;
62102;SDS011;48077;48.104;11.702;2023-06-04T12:57:42;5.95;;;3.65;;
62102;SDS011;48077;48.104;11.702;2023-06-04T13:00:07;6.13;;;3.67;;
62102;SDS011;48077;48.104;11.702;2023-06-04T13:02:31;8.15;;;4.00;;
62102;SDS011;48077;48.104;11.702;2023-06-04T13:04:54;7.57;;;4.30;;
62102;SDS011;48077;48.104;11.702;2023-06-04T13:07:19;7.22;;;4.28;;
62102;SDS011;48077;48.104;11.702;2023-06-04T13:09:42;10.32;;;3.78;;
62102;SDS011;48077;48.104;11.702;2023-06-04T13:12:05;6.57;;;3.85;;
62102;SDS011;48077;48.104;11.702;2023-06-04T13:14:29;9.50;;;4.45;;
62102;SDS011;48077;48.104;11.702;2023-06-04T13:16:55;7.53;;;4.45;;
62102;SDS011;48077;48.104;11.702;2023-06-04T13:19:19;8.50;;;4.32;;
62102;SDS011;48077;48.104;11.702;2023-06-04T13:21:43;6.30;;;4.10;;
62102;SDS011;48077;48.104;11.702;2023-06-04T13:24:09;5.50;;;3.95;;
62102;SDS011;48077;48.104;11.702;2023-06-04T13:26:33;5.97;;;4.18;;
62102;SDS011;48077;48.104;11.702;2023-06-04T13:28:57;7.38;;;4.32;;
62102;SDS011;48077;48.104;11.702;2023-06-04T13:31:22;5.70;;;3.88;;
62102;SDS011;48077;48.104;11.702;2023-06-04T13:33:46;7.07;;;3.88;;
62102;SDS011;48077;48.104;11.702;2023-06-04T13:36:09;7.70;;;4.22;;
62102;SDS011;48077;48.104;11.702;2023-06-04T13:38:32;5.63;;;3.88;;
62102;SDS011;48077;48.104;11.702;2023-06-04T13:40:56;8.30;;;4.00;;
62102;SDS011;48077;48.104;11.702;2023-06-04T13:43:19;8.20;;;4.50;;
62102;SDS011;48077;48.104;11.702;2023-06-04T13:45:43;6.35;;;3.72;;
62102;SDS011;48077;48.104;11.702;2023-06-04T13:48:08;6.68;;;4.00;;
62102;SDS011;48077;48.104;11.702;2023-06-04T13:50:32;5.82;;;4.00;;
62102;SDS011;48077;48.104;11.702;2023-06-04T13:52:56;9.35;;;4.45;;
62102;SDS011;48077;48.104;11.702;2023-06-04T13:55:20;9.00;;;4.38;;
62102;SDS011;48077;48.104;11.702;2023-06-04T13:57:43;4.88;;;3.53;;
62102;SDS011;48077;48.104;11.702;2023-06-04T14:00:06;6.50;;;4.25;;
62102;SDS011;48077;48.104;11.702;2023-06-04T14:02:30;4.95;;;3.35;;
62102;SDS011;48077;48.104;11.702;2023-06-04T14:04:54;6.05;;;3.85;;
62102;SDS011;48077;48.104;11.702;2023-06-04T14:07:17;7.18;;;4.05;;
62102;SDS011;48077;48.104;11.702;2023-06-04T14:09:41;8.43;;;4.53;;
62102;SDS011;48077;48.104;11.702;2023-06-04T14:12:05;5.38;;;3.70;;
62102;SDS011;48077;48.104;11.702;2023-06-04T14:14:28;6.10;;;3.65;;
62102;SDS011;48077;48.104;11.702;2023-06-04T14:16:58;8.55;;;4.25;;
62102;SDS011;48077;48.104;11.702;2023-06-04T14:19:22;6.97;;;3.67;;
62102;SDS011;48077;48.104;11.702;2023-06-04T14:21:45;10.25;;;4.15;;
62102;SDS011;48077;48.104;11.702;2023-06-04T14:24:09;7.95;;;4.20;;
62102;SDS011;48077;48.104;11.702;2023-06-04T14:26:34;5.78;;;4.35;;
62102;SDS011;48077;48.104;11.702;2023-06-04T14:28:58;7.30;;;4.15;;
62102;SDS011;48077;48.104;11.702;2023-06-04T14:31:22;6.00;;;3.63;;